createdAt,value
2022-11-28T00:01:28.661Z,8.70
2022-11-28T00:03:55.361Z,9.65
2022-11-28T00:06:22.583Z,8.93
2022-11-28T00:08:49.513Z,8.70
2022-11-28T00:11:16.795Z,8.93
2022-11-28T00:13:44.222Z,8.73
2022-11-28T00:16:18.416Z,10.20
2022-11-28T00:18:45.240Z,9.65
2022-11-28T00:21:14.492Z,10.10
2022-11-28T00:23:42.264Z,11.60
2022-11-28T00:26:14.952Z,10.73
2022-11-28T00:28:41.695Z,10.23
2022-11-28T00:31:16.169Z,9.82
2022-11-28T00:33:43.006Z,11.60
2022-11-28T00:36:10.062Z,8.73
2022-11-28T00:38:36.828Z,13.95
2022-11-28T00:41:06.256Z,9.00
2022-11-28T00:43:33.767Z,9.20
2022-11-28T00:46:00.720Z,9.85
2022-11-28T00:48:27.561Z,12.02
2022-11-28T00:50:55.174Z,11.10
2022-11-28T00:53:21.861Z,9.68
2022-11-28T00:55:48.458Z,9.80
2022-11-28T00:58:15.049Z,8.80
2022-11-28T01:00:41.786Z,10.25
2022-11-28T01:03:08.386Z,8.82
2022-11-28T01:05:40.494Z,9.48
2022-11-28T01:08:07.331Z,7.88
2022-11-28T01:10:34.040Z,8.57
2022-11-28T01:13:00.593Z,7.95
2022-11-28T01:15:27.293Z,9.73
2022-11-28T01:17:53.841Z,8.85
2022-11-28T01:20:20.396Z,6.47
2022-11-28T01:22:46.973Z,7.82
2022-11-28T01:25:13.653Z,8.38
2022-11-28T01:27:40.253Z,7.25
2022-11-28T01:30:07.806Z,7.40
2022-11-28T01:32:34.433Z,8.73
2022-11-28T01:35:01.060Z,8.45
2022-11-28T01:37:30.101Z,7.20
2022-11-28T01:39:56.758Z,7.85
2022-11-28T01:42:23.678Z,7.72
2022-11-28T01:44:50.197Z,7.32
2022-11-28T01:47:23.513Z,7.28
2022-11-28T01:49:51.608Z,5.82
2022-11-28T01:52:21.086Z,9.00
2022-11-28T01:54:54.875Z,7.55
2022-11-28T01:57:25.316Z,7.85
2022-11-28T02:00:13.956Z,6.30
2022-11-28T02:02:54.446Z,5.05
2022-11-28T02:05:22.038Z,8.50
2022-11-28T02:07:50.179Z,7.65
2022-11-28T02:10:24.708Z,7.57
2022-11-28T02:12:51.268Z,7.78
2022-11-28T02:15:33.095Z,8.40
2022-11-28T02:18:31.810Z,4.32
2022-11-28T02:21:31.091Z,7.13
2022-11-28T02:24:15.844Z,7.22
2022-11-28T02:27:14.412Z,7.88
2022-11-28T02:30:19.463Z,6.90
2022-11-28T02:33:16.349Z,7.00
2022-11-28T02:35:50.254Z,6.10
2022-11-28T02:38:38.158Z,7.97
2022-11-28T02:41:26.837Z,7.93
2022-11-28T02:44:04.658Z,10.68
2022-11-28T02:46:38.099Z,8.85
2022-11-28T02:49:08.644Z,9.65
2022-11-28T02:51:47.828Z,6.88
2022-11-28T02:54:17.003Z,4.30
2022-11-28T02:56:49.220Z,9.82
2022-11-28T02:59:37.484Z,9.40
2022-11-28T03:02:06.514Z,6.25
2022-11-28T03:04:54.196Z,6.22
2022-11-28T03:07:59.649Z,6.03
2022-11-28T03:10:37.859Z,7.15
2022-11-28T03:13:13.746Z,6.88
2022-11-28T03:15:57.092Z,6.57
2022-11-28T03:18:30.692Z,7.80
2022-11-28T03:21:16.998Z,6.78
2022-11-28T03:23:50.753Z,8.45
2022-11-28T03:26:20.394Z,5.57
2022-11-28T03:28:53.969Z,8.52
2022-11-28T03:31:36.312Z,8.52
2022-11-28T03:34:05.923Z,6.07
2022-11-28T03:36:42.369Z,10.07
2022-11-28T03:39:13.141Z,7.63
2022-11-28T03:41:45.769Z,6.68
2022-11-28T03:44:18.764Z,9.63
2022-11-28T03:46:48.426Z,6.43
2022-11-28T03:49:20.515Z,9.57
2022-11-28T03:51:54.407Z,7.05
2022-11-28T03:54:46.346Z,6.55
2022-11-28T03:57:30.365Z,10.63
2022-11-28T03:59:59.828Z,7.18
2022-11-28T04:02:52.627Z,10.40
2022-11-28T04:05:37.727Z,9.43
2022-11-28T04:08:19.965Z,6.40
2022-11-28T04:10:58.120Z,6.57
2022-11-28T04:13:36.422Z,9.80
2022-11-28T04:16:24.031Z,7.18
2022-11-28T04:19:30.921Z,6.55
2022-11-28T04:22:07.187Z,10.23
2022-11-28T04:24:41.375Z,7.38
2022-11-28T04:27:16.165Z,8.18
2022-11-28T04:29:48.057Z,8.32
2022-11-28T04:32:16.353Z,7.70
2022-11-28T04:34:45.649Z,9.82
2022-11-28T04:37:15.448Z,8.68
2022-11-28T04:39:47.109Z,8.95
2022-11-28T04:42:17.958Z,8.88
2022-11-28T04:44:51.258Z,7.90
2022-11-28T04:47:18.399Z,8.13
2022-11-28T04:49:45.261Z,7.38
2022-11-28T04:52:18.961Z,8.73
2022-11-28T04:55:11.790Z,6.82
2022-11-28T04:57:45.125Z,5.93
2022-11-28T05:00:15.724Z,8.18
2022-11-28T05:02:43.953Z,8.00
2022-11-28T05:05:14.824Z,10.65
2022-11-28T05:07:41.575Z,6.75
2022-11-28T05:10:10.400Z,11.52
2022-11-28T05:12:37.142Z,7.88
2022-11-28T05:15:04.313Z,8.48
2022-11-28T05:17:30.870Z,9.90
2022-11-28T05:19:57.584Z,7.15
2022-11-28T05:22:24.146Z,9.07
2022-11-28T05:24:51.147Z,7.18
2022-11-28T05:27:17.781Z,9.00
2022-11-28T05:29:51.961Z,7.18
2022-11-28T05:32:18.880Z,9.23
2022-11-28T05:34:45.472Z,7.47
2022-11-28T05:37:12.298Z,9.25
2022-11-28T05:39:39.100Z,8.50
2022-11-28T05:42:05.966Z,8.57
2022-11-28T05:44:32.565Z,7.93
2022-11-28T05:46:59.161Z,7.97
2022-11-28T05:49:26.309Z,8.43
2022-11-28T05:51:52.922Z,7.07
2022-11-28T05:54:19.544Z,6.80
2022-11-28T05:56:46.575Z,7.70
2022-11-28T05:59:13.994Z,7.15
2022-11-28T06:01:40.662Z,8.77
2022-11-28T06:04:07.392Z,6.75
2022-11-28T06:06:35.353Z,7.97
2022-11-28T06:09:03.396Z,7.95
2022-11-28T06:11:31.953Z,9.10
2022-11-28T06:13:58.902Z,8.50
2022-11-28T06:16:27.476Z,9.32
2022-11-28T06:18:56.207Z,8.07
2022-11-28T06:21:23.485Z,7.63
2022-11-28T06:23:50.561Z,7.80
2022-11-28T06:26:20.934Z,8.30
2022-11-28T06:28:48.055Z,8.95
2022-11-28T06:31:20.503Z,9.07
2022-11-28T06:33:47.780Z,8.25
2022-11-28T06:36:16.286Z,7.25
2022-11-28T06:38:43.302Z,9.18
2022-11-28T06:41:13.247Z,10.57
2022-11-28T06:43:40.505Z,11.30
2022-11-28T06:46:15.914Z,8.20
2022-11-28T06:48:44.174Z,8.13
2022-11-28T06:51:11.724Z,7.20
2022-11-28T06:53:38.786Z,7.88
2022-11-28T06:56:08.197Z,8.57
2022-11-28T06:58:35.870Z,9.38
2022-11-28T07:01:21.307Z,9.50
2022-11-28T07:03:48.908Z,7.93
2022-11-28T07:06:17.532Z,8.98
2022-11-28T07:08:44.169Z,8.38
2022-11-28T07:11:19.997Z,11.02
2022-11-28T07:13:48.343Z,9.57
2022-11-28T07:16:24.599Z,9.55
2022-11-28T07:18:51.781Z,10.93
2022-11-28T07:21:19.426Z,9.88
2022-11-28T07:23:47.110Z,9.30
2022-11-28T07:26:15.374Z,9.60
2022-11-28T07:28:42.691Z,9.93
2022-11-28T07:31:12.577Z,10.13
2022-11-28T07:33:41.654Z,10.45
2022-11-28T07:36:13.055Z,9.23
2022-11-28T07:38:39.685Z,10.70
2022-11-28T07:41:08.827Z,12.15
2022-11-28T07:43:35.488Z,12.82
2022-11-28T07:46:07.601Z,11.77
2022-11-28T07:48:35.086Z,11.80
2022-11-28T07:51:09.605Z,16.52
2022-11-28T07:53:37.030Z,10.73
2022-11-28T07:56:06.104Z,11.65
2022-11-28T07:58:34.485Z,14.10
2022-11-28T08:01:07.775Z,12.18
2022-11-28T08:03:34.337Z,12.52
2022-11-28T08:06:03.283Z,14.43
2022-11-28T08:08:30.039Z,15.70
2022-11-28T08:11:01.153Z,13.65
2022-11-28T08:13:28.562Z,13.00
2022-11-28T08:15:55.713Z,14.20
2022-11-28T08:18:22.396Z,13.90
2022-11-28T08:20:49.099Z,13.80
2022-11-28T08:23:15.922Z,13.60
2022-11-28T08:25:42.566Z,12.73
2022-11-28T08:28:10.128Z,12.98
2022-11-28T08:30:36.731Z,13.65
2022-11-28T08:33:03.414Z,14.13
2022-11-28T08:35:30.210Z,12.90
2022-11-28T08:38:01.662Z,13.80
2022-11-28T08:40:28.866Z,12.90
2022-11-28T08:42:55.720Z,12.75
2022-11-28T08:45:22.423Z,12.32
2022-11-28T08:47:49.051Z,11.27
2022-11-28T08:50:15.748Z,11.32
2022-11-28T08:52:42.381Z,11.35
2022-11-28T08:55:09.428Z,14.27
2022-11-28T08:57:36.011Z,12.15
2022-11-28T09:00:03.074Z,11.48
2022-11-28T09:02:29.667Z,10.32
2022-11-28T09:04:56.377Z,10.65
2022-11-28T09:07:23.022Z,11.63
2022-11-28T09:09:49.867Z,12.38
2022-11-28T09:12:16.702Z,12.45
2022-11-28T09:14:43.245Z,12.95
2022-11-28T09:17:09.954Z,13.70
2022-11-28T09:19:36.590Z,13.48
2022-11-28T09:22:03.248Z,13.55
2022-11-28T09:24:29.797Z,12.45
2022-11-28T09:26:56.799Z,16.02
2022-11-28T09:29:23.435Z,14.60
2022-11-28T09:31:50.007Z,14.98
2022-11-28T09:34:16.646Z,16.60
2022-11-28T09:36:43.302Z,16.15
2022-11-28T09:39:10.181Z,21.23
2022-11-28T09:41:56.981Z,22.13
2022-11-28T09:44:41.821Z,18.98
2022-11-28T09:47:23.732Z,22.23
2022-11-28T09:49:54.670Z,21.95
2022-11-28T09:52:44.995Z,24.67
2022-11-28T09:55:20.074Z,24.15
2022-11-28T09:57:51.543Z,21.48
2022-11-28T10:00:46.077Z,24.63
2022-11-28T10:03:27.907Z,23.38
2022-11-28T10:06:00.727Z,26.83
2022-11-28T10:09:18.452Z,26.63
2022-11-28T10:12:23.781Z,25.58
2022-11-28T10:15:15.324Z,26.55
2022-11-28T10:18:08.754Z,31.42
2022-11-28T10:20:46.899Z,33.05
2022-11-28T10:23:13.417Z,29.05
2022-11-28T10:25:59.503Z,36.45
2022-11-28T10:28:31.033Z,28.90
2022-11-28T10:31:26.269Z,29.83
2022-11-28T10:34:08.548Z,32.88
2022-11-28T10:37:06.141Z,37.58
2022-11-28T10:39:34.882Z,35.13
2022-11-28T10:42:23.292Z,35.75
2022-11-28T10:44:49.813Z,35.67
2022-11-28T10:47:29.970Z,33.13
2022-11-28T10:50:18.324Z,37.60
2022-11-28T10:53:05.539Z,35.03
2022-11-28T10:55:58.397Z,38.13
2022-11-28T10:58:36.920Z,37.20
2022-11-28T11:01:04.091Z,38.00
2022-11-28T11:03:33.389Z,40.80
2022-11-28T11:06:00.329Z,40.03
2022-11-28T11:08:29.359Z,34.20
2022-11-28T11:11:05.057Z,37.03
2022-11-28T11:13:34.623Z,36.00
2022-11-28T11:16:07.950Z,39.33
2022-11-28T11:18:53.020Z,38.03
2022-11-28T11:21:26.868Z,34.80
2022-11-28T11:24:16.916Z,34.22
2022-11-28T11:26:46.816Z,33.25
2022-11-28T11:29:44.696Z,35.13
2022-11-28T11:32:30.307Z,34.63
2022-11-28T11:34:58.707Z,33.53
2022-11-28T11:37:33.824Z,34.83
2022-11-28T11:40:01.619Z,34.25
2022-11-28T11:42:30.745Z,38.60
2022-11-28T11:45:31.997Z,30.08
2022-11-28T11:47:59.006Z,34.33
2022-11-28T11:50:28.360Z,33.65
2022-11-28T11:53:14.969Z,31.90
2022-11-28T11:56:03.184Z,38.33
2022-11-28T11:58:44.739Z,26.15
2022-11-28T12:01:13.380Z,29.35
2022-11-28T12:03:48.345Z,33.90
2022-11-28T12:06:23.379Z,27.30
2022-11-28T12:08:51.173Z,29.15
2022-11-28T12:11:27.735Z,30.33
2022-11-28T12:13:55.522Z,29.17
2022-11-28T12:16:41.505Z,29.52
2022-11-28T12:19:29.834Z,33.00
2022-11-28T12:22:04.742Z,33.28
2022-11-28T12:24:46.052Z,29.10
2022-11-28T12:27:35.771Z,27.65
2022-11-28T12:30:37.110Z,29.60
2022-11-28T12:33:10.978Z,28.08
2022-11-28T12:35:43.432Z,31.13
2022-11-28T12:38:39.851Z,32.15
2022-11-28T12:41:31.950Z,28.25
2022-11-28T12:46:48.632Z,30.95
2022-11-28T12:49:21.494Z,30.75
2022-11-28T12:52:12.527Z,27.15
2022-11-28T12:54:59.377Z,31.88
2022-11-28T12:57:34.053Z,30.33
2022-11-28T13:00:18.167Z,26.23
2022-11-28T13:02:59.681Z,28.10
2022-11-28T13:05:39.186Z,34.63
2022-11-28T13:08:29.635Z,33.35
2022-11-28T13:11:12.628Z,32.28
2022-11-28T13:13:44.553Z,29.52
2022-11-28T13:16:26.974Z,29.38
2022-11-28T13:18:56.819Z,31.45
2022-11-28T13:21:43.037Z,32.58
2022-11-28T13:24:12.624Z,31.00
2022-11-28T13:27:10.444Z,32.22
2022-11-28T13:29:54.890Z,31.60
2022-11-28T13:32:38.516Z,33.38
2022-11-28T13:35:06.107Z,30.08
2022-11-28T13:40:49.131Z,33.50
2022-11-28T13:43:36.929Z,34.65
2022-11-28T13:46:04.407Z,33.33
2022-11-28T13:48:57.514Z,35.45
2022-11-28T13:51:31.726Z,37.45
2022-11-28T13:54:17.953Z,37.22
2022-11-28T13:56:46.257Z,42.90
2022-11-28T13:59:21.599Z,41.83
2022-11-28T14:01:57.485Z,40.03
2022-11-28T14:04:25.774Z,43.83
2022-11-28T14:07:00.663Z,37.55
2022-11-28T14:09:50.283Z,40.35
2022-11-28T14:12:24.970Z,38.65
2022-11-28T14:15:13.151Z,33.67
2022-11-28T14:17:43.013Z,35.10
2022-11-28T14:20:18.309Z,35.20
2022-11-28T14:22:59.650Z,36.65
2022-11-28T14:25:39.025Z,35.90
2022-11-28T14:28:26.321Z,33.58
2022-11-28T14:31:07.844Z,34.05
2022-11-28T14:33:42.302Z,32.20
2022-11-28T14:36:37.314Z,32.78
2022-11-28T14:39:08.749Z,34.00
2022-11-28T14:42:04.218Z,35.43
2022-11-28T14:44:50.546Z,32.58
2022-11-28T14:47:35.077Z,36.80
2022-11-28T14:50:04.429Z,36.08
2022-11-28T14:52:40.955Z,32.33
2022-11-28T14:55:08.090Z,34.53
2022-11-28T14:57:37.536Z,35.70
2022-11-28T15:00:15.255Z,35.30
2022-11-28T15:03:09.343Z,32.05
2022-11-28T15:05:45.553Z,34.20
2022-11-28T15:08:53.848Z,35.10
2022-11-28T15:11:42.666Z,33.67
2022-11-28T15:14:23.436Z,36.60
2022-11-28T15:16:55.043Z,34.05
2022-11-28T15:19:33.104Z,34.05
2022-11-28T15:21:59.901Z,33.55
2022-11-28T15:24:36.398Z,39.10
2022-11-28T15:27:09.002Z,35.13
2022-11-28T15:29:36.879Z,35.90
2022-11-28T15:32:04.931Z,35.05
2022-11-28T15:34:33.978Z,32.72
2022-11-28T15:37:06.796Z,35.53
2022-11-28T15:39:41.606Z,37.53
2022-11-28T15:42:30.473Z,35.00
2022-11-28T15:45:25.089Z,32.30
2022-11-28T15:47:53.036Z,30.75
2022-11-28T15:50:22.808Z,35.15
2022-11-28T15:52:59.368Z,34.58
2022-11-28T15:55:31.987Z,37.97
2022-11-28T15:58:21.019Z,33.15
2022-11-28T16:01:00.362Z,36.88
2022-11-28T16:03:31.250Z,34.78
2022-11-28T16:05:59.559Z,31.05
2022-11-28T16:08:51.793Z,37.85
2022-11-28T16:11:21.108Z,31.30
2022-11-28T16:13:48.231Z,25.75
2022-11-28T16:16:18.857Z,28.75
2022-11-28T16:18:50.895Z,32.55
2022-11-28T16:21:17.533Z,27.55
2022-11-28T16:23:44.163Z,29.52
2022-11-28T16:26:29.240Z,30.70
2022-11-28T16:29:07.398Z,28.88
2022-11-28T16:31:35.125Z,25.65
2022-11-28T16:34:02.792Z,25.25
2022-11-28T16:36:38.271Z,24.17
2022-11-28T16:39:11.078Z,24.15
2022-11-28T16:41:40.421Z,27.13
2022-11-28T16:44:17.957Z,28.58
2022-11-28T16:46:56.424Z,28.60
2022-11-28T16:49:58.788Z,36.92
2022-11-28T16:52:25.350Z,28.88
2022-11-28T16:54:53.878Z,28.70
2022-11-28T16:57:20.814Z,27.25
2022-11-28T16:59:48.902Z,37.28
2022-11-28T17:02:21.198Z,37.55
2022-11-28T17:07:18.454Z,35.92
2022-11-28T17:09:47.031Z,35.35
2022-11-28T17:12:34.562Z,34.72
2022-11-28T17:15:01.149Z,34.50
2022-11-28T17:17:29.778Z,33.55
2022-11-28T17:19:56.454Z,35.75
2022-11-28T17:22:51.162Z,37.72
2022-11-28T17:25:20.472Z,34.60
2022-11-28T17:27:50.522Z,31.15
2022-11-28T17:30:19.292Z,30.65
2022-11-28T17:32:51.781Z,33.88
2022-11-28T17:35:23.445Z,33.88
2022-11-28T17:37:50.541Z,35.20
2022-11-28T17:40:36.619Z,45.38
2022-11-28T17:43:03.570Z,30.58
2022-11-28T17:45:33.870Z,39.65
2022-11-28T17:48:00.538Z,37.10
2022-11-28T17:50:27.225Z,36.42
2022-11-28T17:52:54.001Z,33.55
2022-11-28T17:55:20.707Z,41.58
2022-11-28T17:57:47.494Z,30.38
2022-11-28T18:00:15.103Z,31.67
2022-11-28T18:02:42.135Z,34.28
2022-11-28T18:05:09.339Z,40.60
2022-11-28T18:07:36.047Z,27.23
2022-11-28T18:10:03.488Z,25.77
2022-11-28T18:12:30.252Z,25.88
2022-11-28T18:14:58.796Z,26.55
2022-11-28T18:17:25.348Z,24.58
2022-11-28T18:19:57.132Z,26.35
2022-11-28T18:22:24.239Z,24.55
2022-11-28T18:24:50.844Z,33.38
2022-11-28T18:27:17.399Z,37.60
2022-11-28T18:29:44.196Z,40.38
2022-11-28T18:32:10.860Z,31.60
2022-11-28T18:34:37.416Z,35.63
2022-11-28T18:37:04.158Z,38.72
2022-11-28T18:39:33.041Z,36.53
2022-11-28T18:42:00.103Z,37.38
2022-11-28T18:44:26.747Z,33.97
2022-11-28T18:46:53.344Z,39.58
2022-11-28T18:49:20.317Z,33.83
2022-11-28T18:51:47.086Z,35.70
2022-11-28T18:54:19.265Z,78.20
2022-11-28T18:56:47.917Z,82.13
2022-11-28T18:59:14.480Z,161.00
2022-11-28T19:01:41.177Z,62.95
2022-11-28T19:04:11.059Z,47.53
2022-11-28T19:06:40.077Z,37.50
2022-11-28T19:09:10.329Z,26.35
2022-11-28T19:11:37.175Z,18.48
2022-11-28T19:14:04.357Z,23.73
2022-11-28T19:16:33.530Z,32.67
2022-11-28T19:19:01.283Z,19.02
2022-11-28T19:21:31.458Z,20.52
2022-11-28T19:23:58.438Z,15.48
2022-11-28T19:26:26.854Z,19.23
2022-11-28T19:28:54.186Z,20.08
2022-11-28T19:31:23.282Z,33.67
2022-11-28T19:34:02.019Z,33.45
2022-11-28T19:36:40.480Z,34.67
2022-11-28T19:39:09.333Z,38.38
2022-11-28T19:41:35.953Z,39.10
2022-11-28T19:44:02.563Z,45.22
2022-11-28T19:46:35.008Z,43.88
2022-11-28T19:49:02.483Z,44.60
2022-11-28T19:51:29.113Z,44.83
2022-11-28T19:54:01.349Z,33.75
2022-11-28T19:56:29.797Z,49.50
2022-11-28T19:58:56.389Z,45.05
2022-11-28T20:01:24.665Z,44.65
2022-11-28T20:03:52.568Z,44.65
2022-11-28T20:06:27.774Z,49.65
2022-11-28T20:08:55.626Z,46.55
2022-11-28T20:11:28.228Z,43.45
2022-11-28T20:14:11.367Z,56.03
2022-11-28T20:16:38.514Z,46.80
2022-11-28T20:19:06.696Z,52.95
2022-11-28T20:21:33.893Z,43.45
2022-11-28T20:24:04.929Z,47.72
2022-11-28T20:26:35.212Z,53.15
2022-11-28T20:29:02.065Z,44.72
2022-11-28T20:31:45.210Z,51.83
2022-11-28T20:34:13.696Z,48.50
2022-11-28T20:36:41.721Z,47.00
2022-11-28T20:39:10.614Z,50.70
2022-11-28T20:41:37.322Z,45.92
2022-11-28T20:44:04.038Z,48.03
2022-11-28T20:46:36.085Z,47.22
2022-11-28T20:49:05.666Z,47.33
2022-11-28T20:51:34.264Z,43.63
2022-11-28T20:54:01.704Z,47.25
2022-11-28T20:56:30.847Z,49.22
2022-11-28T20:59:00.487Z,41.85
2022-11-28T21:01:33.065Z,46.67
2022-11-28T21:04:04.234Z,53.15
2022-11-28T21:06:31.596Z,44.92
2022-11-28T21:08:58.268Z,51.28
2022-11-28T21:11:50.587Z,45.67
2022-11-28T21:14:15.030Z,52.58
2022-11-28T21:16:42.103Z,48.38
2022-11-28T21:19:09.389Z,54.00
2022-11-28T21:21:38.830Z,49.42
2022-11-28T21:24:09.486Z,49.95
2022-11-28T21:26:40.948Z,56.63
2022-11-28T21:29:11.988Z,63.90
2022-11-28T21:31:43.025Z,61.35
2022-11-28T21:34:14.148Z,49.55
2022-11-28T21:36:40.938Z,64.80
2022-11-28T21:39:07.553Z,56.38
2022-11-28T21:41:34.153Z,65.18
2022-11-28T21:44:00.822Z,59.83
2022-11-28T21:46:27.969Z,66.47
2022-11-28T21:48:54.718Z,62.25
2022-11-28T21:51:23.950Z,68.35
2022-11-28T21:53:51.087Z,76.20
2022-11-28T21:56:18.321Z,58.70
2022-11-28T21:58:44.957Z,64.95
2022-11-28T22:01:13.621Z,70.32
2022-11-28T22:03:41.520Z,62.05
2022-11-28T22:06:13.705Z,72.32
2022-11-28T22:08:40.274Z,68.15
2022-11-28T22:11:11.025Z,63.08
2022-11-28T22:13:38.496Z,70.20
2022-11-28T22:16:15.582Z,70.82
2022-11-28T22:18:42.477Z,66.93
2022-11-28T22:21:49.408Z,68.30
2022-11-28T22:23:56.535Z,69.97
2022-11-28T22:26:23.286Z,65.63
2022-11-28T22:28:53.529Z,73.45
2022-11-28T22:31:21.112Z,70.78
2022-11-28T22:33:49.158Z,63.78
2022-11-28T22:36:18.739Z,66.00
2022-11-28T22:38:47.005Z,69.45
2022-11-28T22:41:28.462Z,53.75
2022-11-28T22:46:24.173Z,68.60
2022-11-28T22:48:51.826Z,67.22
2022-11-28T22:51:21.656Z,68.75
2022-11-28T22:53:51.913Z,69.70
2022-11-28T22:56:18.542Z,72.13
2022-11-28T22:58:45.692Z,66.57
2022-11-28T23:01:14.969Z,65.47
2022-11-28T23:03:41.886Z,67.55
2022-11-28T23:06:18.154Z,65.43
2022-11-28T23:08:45.377Z,66.47
2022-11-28T23:11:17.968Z,63.75
2022-11-28T23:13:47.754Z,61.53
2022-11-28T23:16:19.177Z,58.55
2022-11-28T23:18:48.021Z,66.70
2022-11-28T23:21:15.713Z,58.08
2022-11-28T23:23:43.965Z,60.05
2022-11-28T23:26:16.688Z,57.55
2022-11-28T23:28:43.616Z,63.40
2022-11-28T23:31:12.158Z,60.45
2022-11-28T23:33:39.546Z,63.70
2022-11-28T23:36:23.078Z,70.90
2022-11-28T23:38:55.125Z,67.63
2022-11-28T23:41:22.069Z,62.90
2022-11-28T23:43:49.159Z,66.50
2022-11-28T23:46:17.274Z,65.70
2022-11-28T23:48:44.690Z,59.45
2022-11-28T23:51:13.236Z,66.03
2022-11-28T23:53:41.017Z,68.45
2022-11-28T23:56:13.832Z,64.32
2022-11-28T23:58:40.973Z,64.07
